sensor_id;sensor_type;location;lat;lon;timestamp;P1;durP1;ratioP1;P2;durP2;ratioP2
15712;SDS011;7957;51.608;6.916;2023-03-14T00:00:10;8.87;;;3.43;;
15712;SDS011;7957;51.608;6.916;2023-03-14T00:02:39;7.63;;;3.30;;
15712;SDS011;7957;51.608;6.916;2023-03-14T00:05:07;7.40;;;3.20;;
15712;SDS011;7957;51.608;6.916;2023-03-14T00:07:35;7.00;;;2.80;;
15712;SDS011;7957;51.608;6.916;2023-03-14T00:10:03;6.83;;;3.13;;
15712;SDS011;7957;51.608;6.916;2023-03-14T00:12:31;9.00;;;3.47;;
15712;SDS011;7957;51.608;6.916;2023-03-14T00:14:58;8.33;;;3.23;;
15712;SDS011;7957;51.608;6.916;2023-03-14T00:17:30;7.67;;;2.90;;
15712;SDS011;7957;51.608;6.916;2023-03-14T00:19:57;9.93;;;3.20;;
15712;SDS011;7957;51.608;6.916;2023-03-14T00:22:29;9.07;;;3.53;;
15712;SDS011;7957;51.608;6.916;2023-03-14T00:24:56;7.83;;;2.93;;
15712;SDS011;7957;51.608;6.916;2023-03-14T00:27:23;6.47;;;3.00;;
15712;SDS011;7957;51.608;6.916;2023-03-14T00:29:51;7.47;;;2.90;;
15712;SDS011;7957;51.608;6.916;2023-03-14T00:32:17;6.80;;;2.33;;
15712;SDS011;7957;51.608;6.916;2023-03-14T00:34:46;7.43;;;3.27;;
15712;SDS011;7957;51.608;6.916;2023-03-14T00:37:13;7.33;;;3.33;;
15712;SDS011;7957;51.608;6.916;2023-03-14T00:39:40;6.30;;;3.10;;
15712;SDS011;7957;51.608;6.916;2023-03-14T00:42:07;9.93;;;3.57;;
15712;SDS011;7957;51.608;6.916;2023-03-14T00:44:34;9.67;;;3.23;;
15712;SDS011;7957;51.608;6.916;2023-03-14T00:47:01;7.37;;;3.33;;
15712;SDS011;7957;51.608;6.916;2023-03-14T00:49:27;6.17;;;2.90;;
15712;SDS011;7957;51.608;6.916;2023-03-14T00:51:56;7.97;;;3.13;;
15712;SDS011;7957;51.608;6.916;2023-03-14T00:54:23;8.70;;;3.17;;
15712;SDS011;7957;51.608;6.916;2023-03-14T00:56:49;8.83;;;2.80;;
15712;SDS011;7957;51.608;6.916;2023-03-14T00:59:16;7.73;;;3.10;;
15712;SDS011;7957;51.608;6.916;2023-03-14T01:01:43;9.53;;;3.00;;
15712;SDS011;7957;51.608;6.916;2023-03-14T01:04:11;7.77;;;3.03;;
15712;SDS011;7957;51.608;6.916;2023-03-14T01:06:38;5.90;;;2.97;;
15712;SDS011;7957;51.608;6.916;2023-03-14T01:09:07;5.17;;;2.77;;
15712;SDS011;7957;51.608;6.916;2023-03-14T01:11:34;7.90;;;3.33;;
15712;SDS011;7957;51.608;6.916;2023-03-14T01:14:02;6.47;;;2.67;;
15712;SDS011;7957;51.608;6.916;2023-03-14T01:16:30;9.30;;;3.30;;
15712;SDS011;7957;51.608;6.916;2023-03-14T01:18:58;4.47;;;2.67;;
15712;SDS011;7957;51.608;6.916;2023-03-14T01:21:26;7.83;;;2.90;;
15712;SDS011;7957;51.608;6.916;2023-03-14T01:23:54;5.93;;;2.80;;
15712;SDS011;7957;51.608;6.916;2023-03-14T01:26:25;6.17;;;2.90;;
15712;SDS011;7957;51.608;6.916;2023-03-14T01:28:53;7.13;;;2.97;;
15712;SDS011;7957;51.608;6.916;2023-03-14T01:31:21;8.27;;;3.00;;
15712;SDS011;7957;51.608;6.916;2023-03-14T01:33:49;7.50;;;2.70;;
15712;SDS011;7957;51.608;6.916;2023-03-14T01:36:17;7.33;;;2.87;;
15712;SDS011;7957;51.608;6.916;2023-03-14T01:38:44;6.47;;;2.50;;
15712;SDS011;7957;51.608;6.916;2023-03-14T01:41:12;6.30;;;2.63;;
15712;SDS011;7957;51.608;6.916;2023-03-14T01:43:42;5.00;;;2.33;;
15712;SDS011;7957;51.608;6.916;2023-03-14T01:49:07;5.63;;;2.30;;
15712;SDS011;7957;51.608;6.916;2023-03-14T01:51:41;6.53;;;2.70;;
15712;SDS011;7957;51.608;6.916;2023-03-14T01:54:13;4.83;;;2.30;;
15712;SDS011;7957;51.608;6.916;2023-03-14T01:56:44;6.00;;;2.73;;
15712;SDS011;7957;51.608;6.916;2023-03-14T01:59:15;6.00;;;2.70;;
15712;SDS011;7957;51.608;6.916;2023-03-14T02:01:43;4.40;;;2.17;;
15712;SDS011;7957;51.608;6.916;2023-03-14T02:04:12;7.53;;;2.63;;
15712;SDS011;7957;51.608;6.916;2023-03-14T02:06:47;4.90;;;2.10;;
15712;SDS011;7957;51.608;6.916;2023-03-14T02:09:17;4.97;;;2.30;;
15712;SDS011;7957;51.608;6.916;2023-03-14T02:11:45;5.30;;;2.43;;
15712;SDS011;7957;51.608;6.916;2023-03-14T02:14:14;6.23;;;2.23;;
15712;SDS011;7957;51.608;6.916;2023-03-14T02:16:49;6.67;;;2.27;;
15712;SDS011;7957;51.608;6.916;2023-03-14T02:19:17;6.33;;;2.40;;
15712;SDS011;7957;51.608;6.916;2023-03-14T02:21:53;6.23;;;2.30;;
15712;SDS011;7957;51.608;6.916;2023-03-14T02:24:29;5.63;;;2.27;;
15712;SDS011;7957;51.608;6.916;2023-03-14T02:27:04;7.53;;;2.63;;
15712;SDS011;7957;51.608;6.916;2023-03-14T02:29:33;5.67;;;2.20;;
15712;SDS011;7957;51.608;6.916;2023-03-14T02:32:05;5.33;;;2.23;;
15712;SDS011;7957;51.608;6.916;2023-03-14T02:34:32;5.03;;;2.10;;
15712;SDS011;7957;51.608;6.916;2023-03-14T02:37:00;6.20;;;2.27;;
15712;SDS011;7957;51.608;6.916;2023-03-14T02:39:30;4.83;;;1.90;;
15712;SDS011;7957;51.608;6.916;2023-03-14T02:42:01;5.40;;;2.10;;
15712;SDS011;7957;51.608;6.916;2023-03-14T02:44:30;3.13;;;2.00;;
15712;SDS011;7957;51.608;6.916;2023-03-14T02:46:57;5.63;;;1.67;;
15712;SDS011;7957;51.608;6.916;2023-03-14T02:49:23;4.87;;;2.30;;
15712;SDS011;7957;51.608;6.916;2023-03-14T02:51:55;5.60;;;2.17;;
15712;SDS011;7957;51.608;6.916;2023-03-14T02:54:22;4.17;;;2.10;;
15712;SDS011;7957;51.608;6.916;2023-03-14T02:56:49;6.50;;;2.13;;
15712;SDS011;7957;51.608;6.916;2023-03-14T02:59:17;6.10;;;2.13;;
15712;SDS011;7957;51.608;6.916;2023-03-14T03:01:44;5.67;;;2.17;;
15712;SDS011;7957;51.608;6.916;2023-03-14T03:04:11;4.03;;;2.03;;
15712;SDS011;7957;51.608;6.916;2023-03-14T03:06:38;6.67;;;2.80;;
15712;SDS011;7957;51.608;6.916;2023-03-14T03:09:05;6.63;;;2.50;;
15712;SDS011;7957;51.608;6.916;2023-03-14T03:11:32;6.47;;;2.50;;
15712;SDS011;7957;51.608;6.916;2023-03-14T03:13:59;6.90;;;2.60;;
15712;SDS011;7957;51.608;6.916;2023-03-14T03:16:27;5.43;;;2.63;;
15712;SDS011;7957;51.608;6.916;2023-03-14T03:18:54;6.00;;;2.37;;
15712;SDS011;7957;51.608;6.916;2023-03-14T03:21:21;5.07;;;2.30;;
15712;SDS011;7957;51.608;6.916;2023-03-14T03:23:49;8.93;;;2.80;;
15712;SDS011;7957;51.608;6.916;2023-03-14T03:26:16;7.60;;;2.70;;
15712;SDS011;7957;51.608;6.916;2023-03-14T03:28:43;7.07;;;3.20;;
15712;SDS011;7957;51.608;6.916;2023-03-14T03:31:13;6.97;;;2.97;;
15712;SDS011;7957;51.608;6.916;2023-03-14T03:33:41;7.47;;;3.00;;
15712;SDS011;7957;51.608;6.916;2023-03-14T03:36:08;7.73;;;3.20;;
15712;SDS011;7957;51.608;6.916;2023-03-14T03:38:35;11.30;;;3.50;;
15712;SDS011;7957;51.608;6.916;2023-03-14T03:41:03;8.37;;;3.37;;
15712;SDS011;7957;51.608;6.916;2023-03-14T03:43:31;7.80;;;3.37;;
15712;SDS011;7957;51.608;6.916;2023-03-14T03:45:59;8.80;;;3.50;;
15712;SDS011;7957;51.608;6.916;2023-03-14T03:48:29;6.70;;;3.20;;
15712;SDS011;7957;51.608;6.916;2023-03-14T03:50:57;6.93;;;3.07;;
15712;SDS011;7957;51.608;6.916;2023-03-14T03:53:24;6.60;;;2.70;;
15712;SDS011;7957;51.608;6.916;2023-03-14T03:55:51;8.10;;;3.50;;
15712;SDS011;7957;51.608;6.916;2023-03-14T03:58:18;7.83;;;2.90;;
15712;SDS011;7957;51.608;6.916;2023-03-14T04:00:45;9.37;;;3.13;;
15712;SDS011;7957;51.608;6.916;2023-03-14T04:03:12;8.27;;;2.70;;
15712;SDS011;7957;51.608;6.916;2023-03-14T04:05:39;10.73;;;3.40;;
15712;SDS011;7957;51.608;6.916;2023-03-14T04:08:07;9.70;;;3.43;;
15712;SDS011;7957;51.608;6.916;2023-03-14T04:10:34;10.40;;;3.37;;
15712;SDS011;7957;51.608;6.916;2023-03-14T04:13:02;7.83;;;2.97;;
15712;SDS011;7957;51.608;6.916;2023-03-14T04:15:28;7.93;;;2.97;;
15712;SDS011;7957;51.608;6.916;2023-03-14T04:17:56;5.43;;;2.60;;
15712;SDS011;7957;51.608;6.916;2023-03-14T04:20:23;9.90;;;3.07;;
15712;SDS011;7957;51.608;6.916;2023-03-14T04:22:50;7.90;;;2.93;;
15712;SDS011;7957;51.608;6.916;2023-03-14T04:25:18;7.20;;;3.17;;
15712;SDS011;7957;51.608;6.916;2023-03-14T04:27:46;6.73;;;2.80;;
15712;SDS011;7957;51.608;6.916;2023-03-14T04:30:13;8.43;;;3.00;;
15712;SDS011;7957;51.608;6.916;2023-03-14T04:32:40;6.07;;;3.10;;
15712;SDS011;7957;51.608;6.916;2023-03-14T04:35:07;7.97;;;3.00;;
15712;SDS011;7957;51.608;6.916;2023-03-14T04:37:34;6.70;;;2.70;;
15712;SDS011;7957;51.608;6.916;2023-03-14T04:40:02;8.77;;;2.97;;
15712;SDS011;7957;51.608;6.916;2023-03-14T04:42:32;9.37;;;3.27;;
15712;SDS011;7957;51.608;6.916;2023-03-14T04:44:59;8.17;;;3.07;;
15712;SDS011;7957;51.608;6.916;2023-03-14T04:47:26;8.87;;;2.90;;
15712;SDS011;7957;51.608;6.916;2023-03-14T04:49:53;7.77;;;2.70;;
15712;SDS011;7957;51.608;6.916;2023-03-14T04:52:20;6.10;;;2.50;;
15712;SDS011;7957;51.608;6.916;2023-03-14T04:54:47;7.80;;;2.50;;
15712;SDS011;7957;51.608;6.916;2023-03-14T04:57:14;5.17;;;2.70;;
15712;SDS011;7957;51.608;6.916;2023-03-14T04:59:43;4.13;;;2.10;;
15712;SDS011;7957;51.608;6.916;2023-03-14T05:02:10;6.90;;;2.20;;
15712;SDS011;7957;51.608;6.916;2023-03-14T05:04:37;4.53;;;2.27;;
15712;SDS011;7957;51.608;6.916;2023-03-14T05:07:04;5.93;;;2.43;;
15712;SDS011;7957;51.608;6.916;2023-03-14T05:09:31;5.77;;;2.37;;
15712;SDS011;7957;51.608;6.916;2023-03-14T05:11:58;4.03;;;2.17;;
15712;SDS011;7957;51.608;6.916;2023-03-14T05:14:26;7.10;;;2.63;;
15712;SDS011;7957;51.608;6.916;2023-03-14T05:16:54;6.87;;;2.30;;
15712;SDS011;7957;51.608;6.916;2023-03-14T05:19:21;4.70;;;2.17;;
15712;SDS011;7957;51.608;6.916;2023-03-14T05:21:48;5.53;;;2.03;;
15712;SDS011;7957;51.608;6.916;2023-03-14T05:24:15;5.57;;;2.27;;
15712;SDS011;7957;51.608;6.916;2023-03-14T05:26:42;3.53;;;1.87;;
15712;SDS011;7957;51.608;6.916;2023-03-14T05:29:09;4.07;;;2.17;;
15712;SDS011;7957;51.608;6.916;2023-03-14T05:31:36;4.07;;;2.13;;
15712;SDS011;7957;51.608;6.916;2023-03-14T05:34:04;5.00;;;2.13;;
15712;SDS011;7957;51.608;6.916;2023-03-14T05:36:31;4.40;;;2.10;;
15712;SDS011;7957;51.608;6.916;2023-03-14T05:38:59;6.30;;;2.30;;
15712;SDS011;7957;51.608;6.916;2023-03-14T05:41:26;3.97;;;2.17;;
15712;SDS011;7957;51.608;6.916;2023-03-14T05:43:54;4.40;;;2.00;;
15712;SDS011;7957;51.608;6.916;2023-03-14T05:46:21;5.20;;;2.13;;
15712;SDS011;7957;51.608;6.916;2023-03-14T05:48:48;5.00;;;2.40;;
15712;SDS011;7957;51.608;6.916;2023-03-14T05:51:16;3.40;;;2.17;;
15712;SDS011;7957;51.608;6.916;2023-03-14T05:53:43;3.00;;;2.03;;
15712;SDS011;7957;51.608;6.916;2023-03-14T05:56:10;4.37;;;2.50;;
15712;SDS011;7957;51.608;6.916;2023-03-14T05:58:37;4.03;;;2.30;;
15712;SDS011;7957;51.608;6.916;2023-03-14T06:01:05;4.30;;;2.00;;
15712;SDS011;7957;51.608;6.916;2023-03-14T06:03:32;6.43;;;2.60;;
15712;SDS011;7957;51.608;6.916;2023-03-14T06:06:00;4.20;;;2.20;;
15712;SDS011;7957;51.608;6.916;2023-03-14T06:08:28;4.43;;;2.33;;
15712;SDS011;7957;51.608;6.916;2023-03-14T06:10:56;4.57;;;2.43;;
15712;SDS011;7957;51.608;6.916;2023-03-14T06:13:23;3.23;;;2.30;;
15712;SDS011;7957;51.608;6.916;2023-03-14T06:15:50;4.70;;;2.60;;
15712;SDS011;7957;51.608;6.916;2023-03-14T06:18:17;2.23;;;2.00;;
15712;SDS011;7957;51.608;6.916;2023-03-14T06:20:44;3.60;;;2.67;;
15712;SDS011;7957;51.608;6.916;2023-03-14T06:23:11;3.03;;;2.53;;
15712;SDS011;7957;51.608;6.916;2023-03-14T06:25:40;4.63;;;2.77;;
15712;SDS011;7957;51.608;6.916;2023-03-14T06:28:06;4.50;;;2.60;;
15712;SDS011;7957;51.608;6.916;2023-03-14T06:30:33;3.40;;;2.60;;
15712;SDS011;7957;51.608;6.916;2023-03-14T06:33:01;3.67;;;2.77;;
15712;SDS011;7957;51.608;6.916;2023-03-14T06:35:28;4.07;;;3.10;;
15712;SDS011;7957;51.608;6.916;2023-03-14T06:37:55;5.57;;;3.13;;
15712;SDS011;7957;51.608;6.916;2023-03-14T06:40:22;4.93;;;3.03;;
15712;SDS011;7957;51.608;6.916;2023-03-14T06:42:50;4.67;;;3.10;;
15712;SDS011;7957;51.608;6.916;2023-03-14T06:45:18;5.10;;;3.13;;
15712;SDS011;7957;51.608;6.916;2023-03-14T06:47:45;4.60;;;3.23;;
15712;SDS011;7957;51.608;6.916;2023-03-14T06:50:12;3.37;;;2.70;;
15712;SDS011;7957;51.608;6.916;2023-03-14T06:52:39;3.40;;;2.80;;
15712;SDS011;7957;51.608;6.916;2023-03-14T06:55:11;3.80;;;3.00;;
15712;SDS011;7957;51.608;6.916;2023-03-14T06:57:38;3.60;;;3.23;;
15712;SDS011;7957;51.608;6.916;2023-03-14T07:00:07;3.77;;;2.90;;
15712;SDS011;7957;51.608;6.916;2023-03-14T07:02:34;3.00;;;2.70;;
15712;SDS011;7957;51.608;6.916;2023-03-14T07:05:01;4.50;;;2.97;;
15712;SDS011;7957;51.608;6.916;2023-03-14T07:07:28;4.10;;;2.83;;
15712;SDS011;7957;51.608;6.916;2023-03-14T07:09:55;3.03;;;2.73;;
15712;SDS011;7957;51.608;6.916;2023-03-14T07:12:22;4.27;;;2.87;;
15712;SDS011;7957;51.608;6.916;2023-03-14T07:14:49;3.43;;;3.03;;
15712;SDS011;7957;51.608;6.916;2023-03-14T07:17:18;3.17;;;2.83;;
15712;SDS011;7957;51.608;6.916;2023-03-14T07:19:45;2.77;;;2.50;;
15712;SDS011;7957;51.608;6.916;2023-03-14T07:22:11;2.60;;;2.40;;
15712;SDS011;7957;51.608;6.916;2023-03-14T07:24:38;2.90;;;2.47;;
15712;SDS011;7957;51.608;6.916;2023-03-14T07:27:07;3.53;;;2.50;;
15712;SDS011;7957;51.608;6.916;2023-03-14T07:29:34;2.70;;;2.33;;
15712;SDS011;7957;51.608;6.916;2023-03-14T07:32:01;3.47;;;2.57;;
15712;SDS011;7957;51.608;6.916;2023-03-14T07:34:29;3.00;;;2.40;;
15712;SDS011;7957;51.608;6.916;2023-03-14T07:36:56;2.53;;;2.10;;
15712;SDS011;7957;51.608;6.916;2023-03-14T07:39:23;3.50;;;2.40;;
15712;SDS011;7957;51.608;6.916;2023-03-14T07:41:51;2.97;;;2.30;;
15712;SDS011;7957;51.608;6.916;2023-03-14T07:44:18;2.53;;;2.20;;
15712;SDS011;7957;51.608;6.916;2023-03-14T07:46:44;2.60;;;2.40;;
15712;SDS011;7957;51.608;6.916;2023-03-14T07:49:11;3.00;;;2.70;;
15712;SDS011;7957;51.608;6.916;2023-03-14T07:51:40;2.60;;;2.40;;
15712;SDS011;7957;51.608;6.916;2023-03-14T07:54:09;3.33;;;2.90;;
15712;SDS011;7957;51.608;6.916;2023-03-14T07:56:36;3.40;;;3.10;;
15712;SDS011;7957;51.608;6.916;2023-03-14T07:59:02;3.17;;;2.97;;
15712;SDS011;7957;51.608;6.916;2023-03-14T08:01:29;3.97;;;3.27;;
15712;SDS011;7957;51.608;6.916;2023-03-14T08:03:56;3.67;;;3.37;;
15712;SDS011;7957;51.608;6.916;2023-03-14T08:06:23;4.20;;;3.80;;
15712;SDS011;7957;51.608;6.916;2023-03-14T08:08:51;5.67;;;4.17;;
15712;SDS011;7957;51.608;6.916;2023-03-14T08:11:18;4.07;;;3.77;;
15712;SDS011;7957;51.608;6.916;2023-03-14T08:13:45;4.20;;;3.77;;
15712;SDS011;7957;51.608;6.916;2023-03-14T08:16:14;4.30;;;4.00;;
15712;SDS011;7957;51.608;6.916;2023-03-14T08:18:42;4.90;;;4.30;;
15712;SDS011;7957;51.608;6.916;2023-03-14T08:21:09;5.10;;;4.60;;
15712;SDS011;7957;51.608;6.916;2023-03-14T08:23:36;5.10;;;4.60;;
15712;SDS011;7957;51.608;6.916;2023-03-14T08:26:04;4.67;;;4.20;;
15712;SDS011;7957;51.608;6.916;2023-03-14T08:28:31;4.63;;;4.23;;
15712;SDS011;7957;51.608;6.916;2023-03-14T08:30:58;4.77;;;4.27;;
15712;SDS011;7957;51.608;6.916;2023-03-14T08:33:26;3.43;;;3.20;;
15712;SDS011;7957;51.608;6.916;2023-03-14T08:35:54;5.13;;;3.30;;
15712;SDS011;7957;51.608;6.916;2023-03-14T08:38:22;3.27;;;2.97;;
15712;SDS011;7957;51.608;6.916;2023-03-14T08:40:54;3.50;;;3.20;;
15712;SDS011;7957;51.608;6.916;2023-03-14T08:43:23;4.17;;;2.93;;
15712;SDS011;7957;51.608;6.916;2023-03-14T08:45:50;3.27;;;2.97;;
15712;SDS011;7957;51.608;6.916;2023-03-14T08:48:17;3.23;;;3.03;;
15712;SDS011;7957;51.608;6.916;2023-03-14T08:50:44;2.93;;;2.70;;
15712;SDS011;7957;51.608;6.916;2023-03-14T08:53:11;3.27;;;2.70;;
15712;SDS011;7957;51.608;6.916;2023-03-14T08:55:38;2.87;;;2.67;;
15712;SDS011;7957;51.608;6.916;2023-03-14T08:58:05;3.77;;;3.00;;
15712;SDS011;7957;51.608;6.916;2023-03-14T09:00:33;2.33;;;2.13;;
15712;SDS011;7957;51.608;6.916;2023-03-14T09:03:00;2.23;;;1.93;;
15712;SDS011;7957;51.608;6.916;2023-03-14T09:05:27;1.70;;;1.53;;
15712;SDS011;7957;51.608;6.916;2023-03-14T09:07:54;3.17;;;2.30;;
15712;SDS011;7957;51.608;6.916;2023-03-14T09:10:21;1.73;;;1.60;;
15712;SDS011;7957;51.608;6.916;2023-03-14T09:12:48;2.00;;;1.80;;
15712;SDS011;7957;51.608;6.916;2023-03-14T09:15:15;2.93;;;1.80;;
15712;SDS011;7957;51.608;6.916;2023-03-14T09:17:44;1.53;;;1.30;;
15712;SDS011;7957;51.608;6.916;2023-03-14T09:20:11;2.20;;;1.50;;
15712;SDS011;7957;51.608;6.916;2023-03-14T09:22:39;2.03;;;1.50;;
15712;SDS011;7957;51.608;6.916;2023-03-14T09:25:06;2.70;;;1.20;;
15712;SDS011;7957;51.608;6.916;2023-03-14T09:27:33;2.30;;;1.30;;
15712;SDS011;7957;51.608;6.916;2023-03-14T09:30:00;1.97;;;1.30;;
15712;SDS011;7957;51.608;6.916;2023-03-14T09:32:27;1.50;;;1.00;;
15712;SDS011;7957;51.608;6.916;2023-03-14T09:34:59;1.43;;;1.20;;
15712;SDS011;7957;51.608;6.916;2023-03-14T09:37:26;1.53;;;1.00;;
15712;SDS011;7957;51.608;6.916;2023-03-14T09:39:54;1.30;;;1.20;;
15712;SDS011;7957;51.608;6.916;2023-03-14T09:42:21;2.73;;;1.10;;
15712;SDS011;7957;51.608;6.916;2023-03-14T09:44:53;1.43;;;1.07;;
15712;SDS011;7957;51.608;6.916;2023-03-14T09:47:23;1.23;;;0.90;;
15712;SDS011;7957;51.608;6.916;2023-03-14T09:49:54;1.23;;;1.10;;
15712;SDS011;7957;51.608;6.916;2023-03-14T09:52:23;1.43;;;1.00;;
15712;SDS011;7957;51.608;6.916;2023-03-14T09:54:54;1.80;;;1.27;;
15712;SDS011;7957;51.608;6.916;2023-03-14T09:57:25;1.40;;;1.10;;
15712;SDS011;7957;51.608;6.916;2023-03-14T09:59:54;2.63;;;1.20;;
15712;SDS011;7957;51.608;6.916;2023-03-14T10:02:32;2.50;;;1.10;;
15712;SDS011;7957;51.608;6.916;2023-03-14T10:05:01;1.40;;;1.00;;
15712;SDS011;7957;51.608;6.916;2023-03-14T10:07:33;1.93;;;1.30;;
15712;SDS011;7957;51.608;6.916;2023-03-14T10:10:00;1.40;;;1.30;;
15712;SDS011;7957;51.608;6.916;2023-03-14T10:12:35;2.37;;;1.30;;
15712;SDS011;7957;51.608;6.916;2023-03-14T10:15:05;1.43;;;1.10;;
15712;SDS011;7957;51.608;6.916;2023-03-14T10:17:38;1.33;;;0.90;;
15712;SDS011;7957;51.608;6.916;2023-03-14T10:20:15;1.10;;;1.00;;
15712;SDS011;7957;51.608;6.916;2023-03-14T10:22:58;1.87;;;0.97;;
15712;SDS011;7957;51.608;6.916;2023-03-14T10:25:27;2.87;;;1.13;;
15712;SDS011;7957;51.608;6.916;2023-03-14T10:27:55;1.13;;;0.90;;
15712;SDS011;7957;51.608;6.916;2023-03-14T10:30:30;1.47;;;1.10;;
15712;SDS011;7957;51.608;6.916;2023-03-14T10:33:09;3.17;;;1.30;;
15712;SDS011;7957;51.608;6.916;2023-03-14T10:35:38;2.03;;;1.40;;
15712;SDS011;7957;51.608;6.916;2023-03-14T10:38:10;1.30;;;1.20;;
15712;SDS011;7957;51.608;6.916;2023-03-14T10:40:40;2.53;;;1.30;;
15712;SDS011;7957;51.608;6.916;2023-03-14T10:43:14;1.67;;;1.10;;
15712;SDS011;7957;51.608;6.916;2023-03-14T10:45:47;2.10;;;1.30;;
15712;SDS011;7957;51.608;6.916;2023-03-14T10:48:23;1.40;;;1.20;;
15712;SDS011;7957;51.608;6.916;2023-03-14T10:50:56;2.50;;;1.10;;
15712;SDS011;7957;51.608;6.916;2023-03-14T10:53:29;2.20;;;1.20;;
15712;SDS011;7957;51.608;6.916;2023-03-14T10:56:02;2.17;;;1.27;;
15712;SDS011;7957;51.608;6.916;2023-03-14T10:58:31;1.47;;;1.10;;
15712;SDS011;7957;51.608;6.916;2023-03-14T11:01:11;1.77;;;1.20;;
15712;SDS011;7957;51.608;6.916;2023-03-14T11:03:58;2.67;;;1.20;;
15712;SDS011;7957;51.608;6.916;2023-03-14T11:06:32;1.73;;;0.97;;
15712;SDS011;7957;51.608;6.916;2023-03-14T11:09:10;4.20;;;1.10;;
15712;SDS011;7957;51.608;6.916;2023-03-14T11:11:46;1.03;;;0.90;;
15712;SDS011;7957;51.608;6.916;2023-03-14T11:14:16;1.90;;;1.00;;
15712;SDS011;7957;51.608;6.916;2023-03-14T11:16:54;1.40;;;0.90;;
15712;SDS011;7957;51.608;6.916;2023-03-14T11:19:37;1.83;;;1.13;;
15712;SDS011;7957;51.608;6.916;2023-03-14T11:22:20;2.67;;;1.00;;
15712;SDS011;7957;51.608;6.916;2023-03-14T11:24:58;2.90;;;1.20;;
15712;SDS011;7957;51.608;6.916;2023-03-14T11:27:40;3.93;;;1.20;;
15712;SDS011;7957;51.608;6.916;2023-03-14T11:30:15;2.40;;;1.20;;
15712;SDS011;7957;51.608;6.916;2023-03-14T11:32:45;2.70;;;1.20;;
15712;SDS011;7957;51.608;6.916;2023-03-14T11:35:17;2.80;;;1.30;;
15712;SDS011;7957;51.608;6.916;2023-03-14T11:37:51;3.83;;;1.50;;
15712;SDS011;7957;51.608;6.916;2023-03-14T11:40:22;3.33;;;1.30;;
15712;SDS011;7957;51.608;6.916;2023-03-14T11:42:54;2.00;;;1.07;;
15712;SDS011;7957;51.608;6.916;2023-03-14T11:45:27;2.40;;;1.40;;
15712;SDS011;7957;51.608;6.916;2023-03-14T11:48:04;2.03;;;1.10;;
15712;SDS011;7957;51.608;6.916;2023-03-14T11:50:45;1.80;;;1.10;;
15712;SDS011;7957;51.608;6.916;2023-03-14T11:53:16;3.50;;;1.40;;
15712;SDS011;7957;51.608;6.916;2023-03-14T11:55:50;3.00;;;1.20;;
15712;SDS011;7957;51.608;6.916;2023-03-14T11:58:19;4.87;;;1.60;;
15712;SDS011;7957;51.608;6.916;2023-03-14T12:00:50;3.93;;;1.50;;
15712;SDS011;7957;51.608;6.916;2023-03-14T12:03:21;3.70;;;1.50;;
15712;SDS011;7957;51.608;6.916;2023-03-14T12:06:00;4.00;;;1.70;;
15712;SDS011;7957;51.608;6.916;2023-03-14T12:08:39;4.47;;;1.77;;
15712;SDS011;7957;51.608;6.916;2023-03-14T12:11:14;5.13;;;1.60;;
15712;SDS011;7957;51.608;6.916;2023-03-14T12:13:46;5.77;;;1.80;;
15712;SDS011;7957;51.608;6.916;2023-03-14T12:19:13;3.07;;;1.30;;
15712;SDS011;7957;51.608;6.916;2023-03-14T12:21:48;5.80;;;1.80;;
15712;SDS011;7957;51.608;6.916;2023-03-14T12:24:17;6.10;;;1.90;;
15712;SDS011;7957;51.608;6.916;2023-03-14T12:26:51;5.37;;;1.90;;
15712;SDS011;7957;51.608;6.916;2023-03-14T12:29:20;6.10;;;2.10;;
15712;SDS011;7957;51.608;6.916;2023-03-14T12:31:46;5.27;;;1.87;;
15712;SDS011;7957;51.608;6.916;2023-03-14T12:34:25;5.80;;;2.30;;
15712;SDS011;7957;51.608;6.916;2023-03-14T12:36:56;6.03;;;2.00;;
15712;SDS011;7957;51.608;6.916;2023-03-14T12:39:35;6.80;;;2.30;;
15712;SDS011;7957;51.608;6.916;2023-03-14T12:42:12;5.07;;;2.03;;
15712;SDS011;7957;51.608;6.916;2023-03-14T12:44:42;8.73;;;2.50;;
15712;SDS011;7957;51.608;6.916;2023-03-14T12:50:13;8.50;;;2.40;;
15712;SDS011;7957;51.608;6.916;2023-03-14T12:52:47;10.47;;;2.87;;
15712;SDS011;7957;51.608;6.916;2023-03-14T12:55:24;10.43;;;3.33;;
15712;SDS011;7957;51.608;6.916;2023-03-14T12:58:04;11.70;;;3.73;;
15712;SDS011;7957;51.608;6.916;2023-03-14T13:00:39;12.20;;;3.30;;
15712;SDS011;7957;51.608;6.916;2023-03-14T13:03:17;10.83;;;3.27;;
15712;SDS011;7957;51.608;6.916;2023-03-14T13:05:54;11.00;;;3.17;;
15712;SDS011;7957;51.608;6.916;2023-03-14T13:08:33;8.13;;;2.90;;
15712;SDS011;7957;51.608;6.916;2023-03-14T13:11:02;11.07;;;3.27;;
15712;SDS011;7957;51.608;6.916;2023-03-14T13:13:34;14.33;;;3.70;;
15712;SDS011;7957;51.608;6.916;2023-03-14T13:16:09;14.80;;;4.23;;
15712;SDS011;7957;51.608;6.916;2023-03-14T13:18:43;11.33;;;3.50;;
15712;SDS011;7957;51.608;6.916;2023-03-14T13:21:11;9.77;;;3.33;;
15712;SDS011;7957;51.608;6.916;2023-03-14T13:23:40;13.67;;;3.87;;
15712;SDS011;7957;51.608;6.916;2023-03-14T13:26:21;14.37;;;3.40;;
15712;SDS011;7957;51.608;6.916;2023-03-14T13:28:52;19.03;;;4.27;;
15712;SDS011;7957;51.608;6.916;2023-03-14T13:31:21;15.37;;;4.63;;
15712;SDS011;7957;51.608;6.916;2023-03-14T13:33:59;13.40;;;4.43;;
15712;SDS011;7957;51.608;6.916;2023-03-14T13:36:26;14.37;;;4.13;;
15712;SDS011;7957;51.608;6.916;2023-03-14T13:38:57;15.60;;;4.63;;
15712;SDS011;7957;51.608;6.916;2023-03-14T13:41:25;15.87;;;3.90;;
15712;SDS011;7957;51.608;6.916;2023-03-14T13:43:56;12.20;;;4.10;;
15712;SDS011;7957;51.608;6.916;2023-03-14T13:46:28;17.37;;;4.73;;
15712;SDS011;7957;51.608;6.916;2023-03-14T13:48:57;10.03;;;3.50;;
15712;SDS011;7957;51.608;6.916;2023-03-14T13:51:26;17.17;;;4.83;;
15712;SDS011;7957;51.608;6.916;2023-03-14T13:53:56;18.37;;;4.87;;
15712;SDS011;7957;51.608;6.916;2023-03-14T13:56:24;12.57;;;4.10;;
15712;SDS011;7957;51.608;6.916;2023-03-14T13:58:52;14.33;;;4.53;;
15712;SDS011;7957;51.608;6.916;2023-03-14T14:01:21;15.13;;;4.40;;
15712;SDS011;7957;51.608;6.916;2023-03-14T14:03:52;10.93;;;3.50;;
15712;SDS011;7957;51.608;6.916;2023-03-14T14:06:23;16.63;;;4.23;;
15712;SDS011;7957;51.608;6.916;2023-03-14T14:08:54;13.77;;;3.63;;
15712;SDS011;7957;51.608;6.916;2023-03-14T14:11:27;13.63;;;3.30;;
15712;SDS011;7957;51.608;6.916;2023-03-14T14:14:04;15.57;;;3.90;;
15712;SDS011;7957;51.608;6.916;2023-03-14T14:16:38;14.60;;;4.30;;
15712;SDS011;7957;51.608;6.916;2023-03-14T14:19:05;12.47;;;4.00;;
15712;SDS011;7957;51.608;6.916;2023-03-14T14:21:32;11.30;;;3.80;;
15712;SDS011;7957;51.608;6.916;2023-03-14T14:23:59;9.00;;;3.47;;
15712;SDS011;7957;51.608;6.916;2023-03-14T14:26:27;11.70;;;3.43;;
15712;SDS011;7957;51.608;6.916;2023-03-14T14:29:02;12.40;;;3.60;;
15712;SDS011;7957;51.608;6.916;2023-03-14T14:31:30;11.00;;;3.47;;
15712;SDS011;7957;51.608;6.916;2023-03-14T14:33:58;15.00;;;3.53;;
15712;SDS011;7957;51.608;6.916;2023-03-14T14:36:27;10.87;;;3.43;;
15712;SDS011;7957;51.608;6.916;2023-03-14T14:38:58;9.87;;;3.30;;
15712;SDS011;7957;51.608;6.916;2023-03-14T14:41:26;11.17;;;2.83;;
15712;SDS011;7957;51.608;6.916;2023-03-14T14:43:55;13.13;;;3.40;;
15712;SDS011;7957;51.608;6.916;2023-03-14T14:46:23;13.83;;;3.93;;
15712;SDS011;7957;51.608;6.916;2023-03-14T14:48:54;10.57;;;3.30;;
15712;SDS011;7957;51.608;6.916;2023-03-14T14:51:25;12.07;;;3.70;;
15712;SDS011;7957;51.608;6.916;2023-03-14T14:54:02;10.83;;;3.00;;
15712;SDS011;7957;51.608;6.916;2023-03-14T14:56:34;12.93;;;3.20;;
15712;SDS011;7957;51.608;6.916;2023-03-14T14:59:02;13.77;;;3.30;;
15712;SDS011;7957;51.608;6.916;2023-03-14T15:01:33;10.50;;;3.23;;
15712;SDS011;7957;51.608;6.916;2023-03-14T15:04:00;12.63;;;3.23;;
15712;SDS011;7957;51.608;6.916;2023-03-14T15:06:30;8.70;;;3.00;;
15712;SDS011;7957;51.608;6.916;2023-03-14T15:08:57;10.60;;;3.27;;
15712;SDS011;7957;51.608;6.916;2023-03-14T15:11:25;9.73;;;3.03;;
15712;SDS011;7957;51.608;6.916;2023-03-14T15:13:53;9.93;;;2.90;;
15712;SDS011;7957;51.608;6.916;2023-03-14T15:16:20;9.20;;;2.70;;
15712;SDS011;7957;51.608;6.916;2023-03-14T15:18:50;9.80;;;2.87;;
15712;SDS011;7957;51.608;6.916;2023-03-14T15:21:20;9.33;;;2.50;;